createdAt,value
2019-05-01T00:01:30.360Z,0.00
2019-05-01T00:02:30.240Z,0.00
2019-05-01T00:03:30.579Z,0.00
2019-05-01T00:04:30.492Z,0.00
2019-05-01T00:06:30.419Z,0.00
2019-05-01T00:07:30.395Z,0.00
2019-05-01T00:08:30.479Z,0.00
2019-05-01T00:09:30.507Z,0.00
2019-05-01T00:10:30.787Z,0.00
2019-05-01T00:11:30.878Z,0.00
2019-05-01T00:12:30.628Z,0.00
2019-05-01T00:13:30.585Z,0.00
2019-05-01T00:14:30.667Z,0.00
2019-05-01T00:15:30.693Z,0.00
2019-05-01T00:16:30.838Z,0.00
2019-05-01T00:17:31.091Z,0.00
2019-05-01T00:18:30.794Z,0.00
2019-05-01T00:19:30.834Z,0.00
2019-05-01T00:20:30.861Z,0.00
2019-05-01T00:21:30.826Z,0.00
2019-05-01T00:22:30.927Z,0.00
2019-05-01T00:23:30.890Z,0.00
2019-05-01T00:24:31.376Z,0.00
2019-05-01T00:25:31.005Z,0.00
2019-05-01T00:26:30.983Z,0.00
2019-05-01T00:27:31.066Z,0.00
2019-05-01T00:28:31.096Z,0.00
2019-05-01T00:29:31.125Z,0.00
2019-05-01T00:30:31.157Z,0.00
2019-05-01T00:31:31.442Z,0.00
2019-05-01T00:32:31.284Z,0.00
2019-05-01T00:33:31.253Z,0.00
2019-05-01T00:34:31.233Z,0.00
2019-05-01T00:35:31.318Z,0.00
2019-05-01T00:36:31.298Z,0.00
2019-05-01T00:37:31.376Z,0.00
2019-05-01T00:38:31.720Z,0.00
2019-05-01T00:39:31.389Z,0.00
2019-05-01T00:40:31.603Z,0.00
2019-05-01T00:41:31.446Z,0.00
2019-05-01T00:42:31.529Z,0.00
2019-05-01T00:43:31.516Z,0.00
2019-05-01T00:44:31.902Z,0.00
2019-05-01T00:45:31.733Z,0.00
2019-05-01T00:46:31.612Z,0.00
2019-05-01T00:47:31.696Z,0.00
2019-05-01T00:48:31.718Z,0.00
2019-05-01T00:49:31.747Z,0.00
2019-05-01T00:50:32.028Z,0.00
2019-05-01T00:51:31.897Z,0.00
2019-05-01T00:53:31.875Z,0.00
2019-05-01T00:54:31.846Z,0.00
2019-05-01T00:55:31.890Z,0.00
2019-05-01T00:56:32.263Z,0.00
2019-05-01T00:57:32.003Z,0.00
2019-05-01T01:03:32.176Z,0.00
2019-05-01T01:04:32.530Z,0.00
2019-05-01T01:06:32.286Z,0.00
2019-05-01T01:07:32.404Z,0.00
2019-05-01T01:08:32.333Z,0.00
2019-05-01T01:09:32.362Z,0.00
2019-05-01T01:10:32.699Z,0.00
2019-05-01T01:11:32.486Z,0.00
2019-05-01T01:12:32.468Z,0.00
2019-05-01T01:13:32.478Z,0.00
2019-05-01T01:14:32.512Z,0.00
2019-05-01T01:15:32.648Z,0.00
2019-05-01T01:16:32.869Z,0.00
2019-05-01T01:17:32.906Z,0.00
2019-05-01T01:18:32.663Z,0.00
2019-05-01T01:19:32.669Z,0.00
2019-05-01T01:20:32.697Z,0.00
2019-05-01T01:21:32.803Z,0.00
2019-05-01T01:22:32.761Z,0.00
2019-05-01T01:23:33.202Z,0.00
2019-05-01T01:24:33.152Z,0.00
2019-05-01T01:25:32.842Z,0.00
2019-05-01T01:26:32.849Z,0.00
2019-05-01T01:27:32.926Z,0.00
2019-05-01T01:29:32.972Z,0.00
2019-05-01T01:30:32.957Z,0.00
2019-05-01T01:31:33.446Z,0.00
2019-05-01T01:33:33.156Z,0.00
2019-05-01T01:34:33.156Z,0.00
2019-05-01T01:35:33.109Z,0.00
2019-05-01T01:36:33.131Z,0.00
2019-05-01T01:37:33.173Z,0.00
2019-05-01T01:38:33.264Z,0.00
2019-05-01T01:39:33.340Z,0.00
2019-05-01T01:40:33.689Z,0.00
2019-05-01T01:41:33.344Z,0.00
2019-05-01T01:42:33.326Z,0.00
2019-05-01T01:45:33.459Z,0.00
2019-05-01T01:46:33.794Z,0.00
2019-05-01T01:47:33.472Z,0.00
2019-05-01T01:48:33.554Z,0.00
2019-05-01T01:49:33.529Z,0.00
2019-05-01T01:50:33.619Z,0.00
2019-05-01T01:51:33.793Z,0.00
2019-05-01T01:52:33.775Z,0.00
2019-05-01T01:53:34.008Z,0.00
2019-05-01T01:54:33.755Z,0.00
2019-05-01T01:55:33.816Z,0.00
2019-05-01T01:56:33.799Z,0.00
2019-05-01T01:57:33.772Z,0.00
2019-05-01T01:58:33.812Z,0.00
2019-05-01T01:59:33.850Z,0.00
2019-05-01T02:00:34.218Z,0.00
2019-05-01T02:01:33.987Z,0.00
2019-05-01T02:02:33.936Z,0.00
2019-05-01T02:03:34.014Z,0.00
2019-05-01T02:04:33.983Z,0.00
2019-05-01T02:05:34.087Z,0.00
2019-05-01T02:07:34.131Z,0.00
2019-05-01T02:08:34.409Z,0.00
2019-05-01T02:09:34.138Z,0.00
2019-05-01T02:10:42.660Z,0.00
2019-05-01T02:11:34.200Z,0.00
2019-05-01T02:12:34.233Z,0.00
2019-05-01T02:13:34.312Z,0.00
2019-05-01T02:14:34.292Z,0.00
2019-05-01T02:15:34.674Z,0.00
2019-05-01T02:16:34.415Z,0.00
2019-05-01T02:17:34.538Z,0.00
2019-05-01T02:19:34.498Z,0.00
2019-05-01T02:20:34.526Z,0.00
2019-05-01T02:21:34.509Z,0.00
2019-05-01T02:22:34.891Z,0.00
2019-05-01T02:23:34.569Z,0.00
2019-05-01T02:25:34.735Z,0.00
2019-05-01T02:26:34.668Z,0.00
2019-05-01T02:27:34.785Z,0.00
2019-05-01T02:28:35.073Z,0.00
2019-05-01T02:29:35.060Z,0.00
2019-05-01T02:30:34.783Z,0.00
2019-05-01T02:31:34.815Z,0.00
2019-05-01T02:32:34.994Z,0.00
2019-05-01T02:33:34.973Z,0.00
2019-05-01T02:34:34.975Z,0.00
2019-05-01T02:35:35.023Z,0.00
2019-05-01T02:36:35.412Z,0.00
2019-05-01T02:37:35.086Z,0.00
2019-05-01T02:38:35.141Z,0.00
2019-05-01T02:39:35.141Z,0.00
2019-05-01T02:40:35.233Z,0.00
2019-05-01T02:42:35.238Z,0.00
2019-05-01T02:43:35.611Z,0.00
2019-05-01T02:44:35.281Z,0.00
2019-05-01T02:45:35.450Z,0.00
2019-05-01T02:46:35.338Z,0.00
2019-05-01T02:47:35.766Z,0.00
2019-05-01T02:48:35.415Z,0.00
2019-05-01T02:49:35.504Z,0.00
2019-05-01T02:50:35.802Z,0.00
2019-05-01T02:51:35.513Z,0.00
2019-05-01T02:52:35.555Z,0.00
2019-05-01T02:54:35.663Z,0.00
2019-05-01T02:55:35.641Z,0.00
2019-05-01T02:56:35.644Z,0.00
2019-05-01T02:57:35.974Z,0.00
2019-05-01T02:58:35.685Z,0.00
2019-05-01T02:59:35.737Z,0.00
2019-05-01T03:00:35.755Z,0.00
2019-05-01T03:01:46.647Z,0.00
2019-05-01T03:02:35.809Z,0.00
2019-05-01T03:03:35.849Z,0.00
2019-05-01T03:04:36.207Z,0.00
2019-05-01T03:05:35.913Z,0.00
2019-05-01T03:06:35.942Z,0.00
2019-05-01T03:08:35.998Z,0.00
2019-05-01T03:09:36.043Z,0.00
2019-05-01T03:10:36.164Z,0.00
2019-05-01T03:11:36.406Z,0.00
2019-05-01T03:12:36.115Z,0.00
2019-05-01T03:13:36.146Z,0.00
2019-05-01T03:14:36.186Z,0.00
2019-05-01T03:15:36.222Z,0.00
2019-05-01T03:16:36.234Z,0.00
2019-05-01T03:17:36.272Z,0.00
2019-05-01T03:18:36.630Z,0.00
2019-05-01T03:19:36.365Z,0.00
2019-05-01T03:20:36.432Z,0.00
2019-05-01T03:21:36.399Z,0.00
2019-05-01T03:23:36.452Z,0.00
2019-05-01T03:24:36.430Z,0.00
2019-05-01T03:25:36.760Z,0.00
2019-05-01T03:26:36.550Z,0.00
2019-05-01T03:27:36.639Z,0.00
2019-05-01T03:28:36.619Z,0.00
2019-05-01T03:29:36.645Z,0.00
2019-05-01T03:30:36.643Z,0.00
2019-05-01T03:31:36.981Z,0.00
2019-05-01T03:32:36.676Z,0.00
2019-05-01T03:33:36.742Z,0.00
2019-05-01T03:34:36.773Z,0.00
2019-05-01T03:35:36.813Z,0.00
2019-05-01T03:36:36.849Z,0.00
2019-05-01T03:37:37.198Z,0.00
2019-05-01T03:38:36.912Z,0.00
2019-05-01T03:40:37.003Z,0.00
2019-05-01T03:42:51.818Z,0.00
2019-05-01T03:43:51.590Z,0.00
2019-05-01T03:44:51.613Z,0.00
2019-05-01T03:45:51.641Z,4.00
2019-05-01T03:46:51.629Z,4.00
2019-05-01T03:47:51.657Z,4.00
2019-05-01T03:48:52.031Z,4.00
2019-05-01T03:49:51.760Z,4.00
2019-05-01T03:50:51.761Z,4.00
2019-05-01T03:51:51.773Z,8.00
2019-05-01T03:52:51.803Z,4.00
2019-05-01T03:53:51.900Z,8.00
2019-05-01T03:54:52.219Z,12.00
2019-05-01T03:55:51.932Z,8.00
2019-05-01T03:56:51.930Z,12.00
2019-05-01T03:57:51.951Z,12.00
2019-05-01T03:58:52.042Z,12.00
2019-05-01T03:59:52.016Z,16.00
2019-05-01T04:00:52.397Z,16.00
2019-05-01T04:01:52.120Z,16.00
2019-05-01T04:02:52.150Z,20.00
2019-05-01T04:03:52.193Z,24.00
2019-05-01T04:04:52.216Z,28.00
2019-05-01T04:05:52.247Z,32.00
2019-05-01T04:06:52.237Z,36.00
2019-05-01T04:07:52.601Z,36.00
2019-05-01T04:08:52.286Z,40.00
2019-05-01T04:09:52.374Z,44.00
2019-05-01T04:10:52.346Z,44.00
2019-05-01T04:11:52.379Z,44.00
2019-05-01T04:12:52.456Z,48.00
2019-05-01T04:13:52.432Z,48.00
2019-05-01T04:14:52.514Z,48.00
2019-05-01T04:16:52.572Z,60.00
2019-05-01T04:17:52.560Z,64.00
2019-05-01T04:18:52.635Z,64.00
2019-05-01T04:19:52.613Z,68.00
2019-05-01T04:20:53.000Z,72.00
2019-05-01T04:21:52.672Z,76.00
2019-05-01T04:22:52.750Z,80.00
2019-05-01T04:23:52.794Z,84.00
2019-05-01T04:24:52.819Z,84.00
2019-05-01T04:25:52.802Z,88.00
2019-05-01T04:26:52.884Z,96.00
2019-05-01T04:27:53.204Z,100.00
2019-05-01T04:28:52.993Z,104.00
2019-05-01T04:29:53.013Z,108.00
2019-05-01T04:30:53.314Z,108.00
2019-05-01T04:31:52.978Z,116.00
2019-05-01T04:32:53.407Z,120.00
2019-05-01T04:33:53.093Z,124.00
2019-05-01T04:34:53.441Z,128.00
2019-05-01T04:35:53.099Z,132.00
2019-05-01T04:36:53.178Z,140.00
2019-05-01T04:37:53.229Z,144.00
2019-05-01T04:38:53.243Z,148.00
2019-05-01T04:39:53.224Z,152.00
2019-05-01T04:40:53.295Z,160.00
2019-05-01T04:41:53.626Z,164.00
2019-05-01T04:42:53.313Z,168.00
2019-05-01T04:43:53.339Z,180.00
2019-05-01T04:44:53.388Z,184.00
2019-05-01T04:45:53.398Z,196.00
2019-05-01T04:46:53.797Z,204.00
2019-05-01T04:47:53.463Z,216.00
2019-05-01T04:48:53.858Z,224.00
2019-05-01T04:49:53.587Z,228.00
2019-05-01T04:50:53.630Z,236.00
2019-05-01T04:51:53.652Z,240.00
2019-05-01T04:52:53.669Z,248.00
2019-05-01T04:53:53.649Z,252.00
2019-05-01T04:54:54.067Z,252.00
2019-05-01T04:55:53.693Z,260.00
2019-05-01T04:56:53.780Z,260.00
2019-05-01T04:57:53.810Z,256.00
2019-05-01T04:58:53.795Z,252.00
2019-05-01T04:59:53.868Z,252.00
2019-05-01T05:00:54.199Z,256.00
2019-05-01T05:01:56.735Z,256.00
2019-05-01T05:03:04.064Z,264.00
2019-05-01T05:03:53.938Z,268.00
2019-05-01T05:04:53.966Z,280.00
2019-05-01T05:05:54.041Z,296.00
2019-05-01T05:06:54.331Z,304.00
2019-05-01T05:07:54.079Z,292.00
2019-05-01T05:08:54.158Z,292.00
2019-05-01T05:09:54.166Z,288.00
2019-05-01T05:10:54.164Z,300.00
2019-05-01T05:11:54.221Z,328.00
2019-05-01T05:12:54.214Z,340.00
2019-05-01T05:13:54.544Z,356.00
2019-05-01T05:14:54.326Z,368.00
2019-05-01T05:15:54.341Z,368.00
2019-05-01T05:16:54.327Z,352.00
2019-05-01T05:17:54.355Z,340.00
2019-05-01T05:18:54.434Z,344.00
2019-05-01T05:19:54.411Z,360.00
2019-05-01T05:20:54.797Z,376.00
2019-05-01T05:21:54.519Z,384.00
2019-05-01T05:22:54.549Z,392.00
2019-05-01T05:23:54.535Z,388.00
2019-05-01T05:24:54.616Z,388.00
2019-05-01T05:25:54.591Z,404.00
2019-05-01T05:26:54.630Z,408.00
2019-05-01T05:27:55.054Z,416.00
2019-05-01T05:28:54.743Z,420.00
2019-05-01T05:29:54.778Z,416.00
2019-05-01T05:30:54.738Z,408.00
2019-05-01T05:31:54.780Z,412.00
2019-05-01T05:32:54.855Z,424.00
2019-05-01T05:33:54.884Z,420.00
2019-05-01T05:34:55.219Z,412.00
2019-05-01T05:35:54.898Z,400.00
2019-05-01T05:36:54.968Z,392.00
2019-05-01T05:37:55.007Z,404.00
2019-05-01T05:38:55.030Z,420.00
2019-05-01T05:39:55.074Z,436.00
2019-05-01T05:40:55.147Z,444.00
2019-05-01T05:41:55.424Z,456.00
2019-05-01T05:42:55.100Z,476.00
2019-05-01T05:43:55.153Z,492.00
2019-05-01T05:44:55.230Z,504.00
2019-05-01T05:45:55.249Z,496.00
2019-05-01T05:46:55.228Z,480.00
2019-05-01T05:47:55.248Z,484.00
2019-05-01T05:48:55.645Z,476.00
2019-05-01T05:49:55.342Z,484.00
2019-05-01T05:50:55.393Z,512.00
2019-05-01T05:51:55.379Z,512.00
2019-05-01T05:52:55.453Z,532.00
2019-05-01T05:53:55.478Z,540.00
2019-05-01T05:54:55.460Z,536.00
2019-05-01T05:55:55.839Z,548.00
2019-05-01T05:56:55.539Z,556.00
2019-05-01T05:57:55.614Z,568.00
2019-05-01T05:58:55.629Z,580.00
2019-05-01T05:59:55.658Z,572.00
2019-05-01T06:00:55.642Z,548.00
2019-05-01T06:01:55.677Z,564.00
2019-05-01T06:02:56.058Z,576.00
2019-05-01T06:03:55.732Z,596.00
2019-05-01T06:04:55.863Z,596.00
2019-05-01T06:05:55.847Z,604.00
2019-05-01T06:06:55.820Z,620.00
2019-05-01T06:07:55.849Z,620.00
2019-05-01T06:08:55.938Z,620.00
2019-05-01T06:09:56.262Z,620.00
2019-05-01T06:10:58.474Z,604.00
2019-05-01T06:11:55.972Z,616.00
2019-05-01T06:12:55.995Z,636.00
2019-05-01T06:13:56.997Z,652.00
2019-05-01T06:14:56.113Z,648.00
2019-05-01T06:15:56.085Z,652.00
2019-05-01T06:16:56.475Z,648.00
2019-05-01T06:17:59.034Z,644.00
2019-05-01T06:18:56.234Z,656.00
2019-05-01T06:19:56.217Z,664.00
2019-05-01T06:20:57.057Z,688.00
2019-05-01T06:21:56.273Z,680.00
2019-05-01T06:22:56.297Z,684.00
2019-05-01T06:23:57.741Z,708.00
2019-05-01T06:24:56.364Z,732.00
2019-05-01T06:26:00.295Z,756.00
2019-05-01T06:27:56.451Z,760.00
2019-05-01T06:29:00.653Z,764.00
2019-05-01T06:29:56.509Z,764.00
2019-05-01T06:30:56.888Z,784.00
2019-05-01T06:31:58.921Z,792.00
2019-05-01T06:32:56.650Z,792.00
2019-05-01T06:33:56.633Z,768.00
2019-05-01T06:34:58.539Z,748.00
2019-05-01T06:35:56.746Z,756.00
2019-05-01T06:36:56.720Z,760.00
2019-05-01T06:38:00.727Z,776.00
2019-05-01T06:38:56.797Z,792.00
2019-05-01T06:39:56.816Z,820.00
2019-05-01T06:40:58.055Z,844.00
2019-05-01T06:41:56.925Z,844.00
2019-05-01T06:42:56.898Z,856.00
2019-05-01T06:44:02.411Z,884.00
2019-05-01T06:44:57.029Z,876.00
2019-05-01T06:45:59.854Z,836.00
2019-05-01T06:46:58.285Z,824.00
2019-05-01T06:47:57.069Z,816.00
2019-05-01T06:48:57.106Z,832.00
2019-05-01T06:50:01.261Z,848.00
2019-05-01T06:50:57.507Z,864.00
2019-05-01T06:51:57.237Z,884.00
2019-05-01T06:52:59.740Z,864.00
2019-05-01T06:53:57.290Z,828.00
2019-05-01T06:54:57.268Z,812.00
2019-05-01T06:55:57.593Z,816.00
2019-05-01T06:56:57.413Z,840.00
2019-05-01T06:57:57.355Z,832.00
2019-05-01T06:58:57.516Z,828.00
2019-05-01T06:59:57.413Z,848.00
2019-05-01T07:00:57.475Z,876.00
2019-05-01T07:01:58.309Z,880.00
2019-05-01T07:02:57.853Z,908.00
2019-05-01T07:04:03.371Z,912.00
2019-05-01T07:04:57.564Z,912.00
2019-05-01T07:05:57.616Z,916.00
2019-05-01T07:06:57.650Z,912.00
2019-05-01T07:07:57.672Z,936.00
2019-05-01T07:08:57.701Z,916.00
2019-05-01T07:09:58.075Z,916.00
2019-05-01T07:10:57.800Z,888.00
2019-05-01T07:11:57.783Z,848.00
2019-05-01T07:12:59.844Z,836.00
2019-05-01T07:13:57.890Z,876.00
2019-05-01T07:14:57.870Z,876.00
2019-05-01T07:16:00.379Z,888.00
2019-05-01T07:16:58.021Z,912.00
2019-05-01T07:17:58.036Z,904.00
2019-05-01T07:19:05.406Z,924.00
2019-05-01T07:19:58.075Z,956.00
2019-05-01T07:20:58.114Z,980.00
2019-05-01T07:22:01.867Z,984.00
2019-05-01T07:22:58.424Z,968.00
2019-05-01T07:23:58.192Z,936.00
2019-05-01T07:24:58.891Z,912.00
2019-05-01T07:25:58.268Z,916.00
2019-05-01T07:26:59.843Z,960.00
2019-05-01T07:27:58.789Z,976.00
2019-05-01T07:28:58.449Z,988.00
2019-05-01T07:29:58.675Z,972.00
2019-05-01T07:30:58.412Z,968.00
2019-05-01T07:32:01.682Z,956.00
2019-05-01T07:32:58.472Z,968.00
2019-05-01T07:33:58.502Z,984.00
2019-05-01T07:35:02.177Z,992.00
2019-05-01T07:35:58.584Z,1040.00
2019-05-01T07:36:58.606Z,1036.00
2019-05-01T07:38:02.232Z,1052.00
2019-05-01T07:38:58.602Z,1092.00
2019-05-01T07:39:58.631Z,1140.00
2019-05-01T07:41:02.879Z,1144.00
2019-05-01T07:41:58.740Z,1124.00
2019-05-01T07:42:59.065Z,1100.00
2019-05-01T07:43:59.620Z,1120.00
2019-05-01T07:44:58.833Z,1156.00
2019-05-01T07:45:58.815Z,1136.00
2019-05-01T07:46:58.887Z,1120.00
2019-05-01T07:48:01.102Z,1164.00
2019-05-01T07:48:59.252Z,1200.00
2019-05-01T07:49:58.985Z,1236.00
2019-05-01T07:51:01.852Z,1204.00
2019-05-01T07:52:01.682Z,1224.00
2019-05-01T07:52:59.070Z,1212.00
2019-05-01T07:54:03.435Z,1144.00
2019-05-01T07:55:59.465Z,1136.00
2019-05-01T07:57:03.236Z,1212.00
2019-05-01T07:57:59.224Z,1212.00
2019-05-01T08:00:59.353Z,1260.00
2019-05-01T08:01:59.299Z,1268.00
2019-05-01T08:03:02.579Z,1264.00
2019-05-01T08:03:59.352Z,1228.00
2019-05-01T08:04:59.400Z,1240.00
2019-05-01T08:05:59.496Z,1292.00
2019-05-01T08:06:59.457Z,1252.00
2019-05-01T08:08:02.897Z,1244.00
2019-05-01T08:08:59.559Z,1252.00
2019-05-01T08:09:59.600Z,1272.00
2019-05-01T08:11:59.658Z,1276.00
2019-05-01T08:13:00.514Z,1328.00
2019-05-01T08:14:07.279Z,1344.00
2019-05-01T08:14:59.996Z,1360.00
2019-05-01T08:16:02.104Z,1352.00
2019-05-01T08:17:59.947Z,1376.00
2019-05-01T08:19:04.092Z,1424.00
2019-05-01T08:19:59.848Z,1392.00
2019-05-01T08:20:59.949Z,1332.00
2019-05-01T08:22:01.761Z,1280.00
2019-05-01T08:22:59.944Z,1304.00
2019-05-01T08:23:59.971Z,1372.00
2019-05-01T08:25:00.079Z,1420.00
2019-05-01T08:26:04.058Z,1412.00
2019-05-01T08:27:00.119Z,1448.00
2019-05-01T08:28:00.162Z,1484.00
2019-05-01T08:29:03.009Z,1488.00
2019-05-01T08:30:00.246Z,1464.00
2019-05-01T08:31:00.180Z,1436.00
2019-05-01T08:32:03.424Z,1440.00
2019-05-01T08:33:00.313Z,1392.00
2019-05-01T08:34:00.323Z,1352.00
2019-05-01T08:35:02.434Z,1340.00
2019-05-01T08:36:00.375Z,1352.00
2019-05-01T08:37:00.467Z,1400.00
2019-05-01T08:39:04.662Z,1432.00
2019-05-01T08:40:00.519Z,1420.00
2019-05-01T08:41:00.548Z,1384.00
2019-05-01T08:43:00.935Z,1368.00
2019-05-01T08:44:00.646Z,1392.00
2019-05-01T08:45:05.349Z,1392.00
2019-05-01T08:46:00.662Z,1384.00
2019-05-01T08:47:00.746Z,1388.00
2019-05-01T08:48:01.526Z,1352.00
2019-05-01T08:49:00.782Z,1360.00
2019-05-01T08:50:00.813Z,1428.00
2019-05-01T08:51:00.824Z,1468.00
2019-05-01T08:52:04.752Z,1436.00
2019-05-01T08:53:01.028Z,1428.00
2019-05-01T08:54:00.939Z,1444.00
2019-05-01T08:55:04.197Z,1452.00
2019-05-01T08:56:01.324Z,1456.00
2019-05-01T08:57:00.990Z,1460.00
2019-05-01T08:58:01.180Z,1488.00
2019-05-01T08:59:01.047Z,1540.00
2019-05-01T09:00:01.664Z,1504.00
2019-05-01T09:01:01.166Z,1548.00
2019-05-01T09:02:09.349Z,1596.00
2019-05-01T09:03:08.162Z,1636.00
2019-05-01T09:04:12.272Z,1644.00
2019-05-01T09:05:02.742Z,1676.00
2019-05-01T09:06:01.337Z,1660.00
2019-05-01T09:07:01.294Z,1616.00
2019-05-01T09:08:01.688Z,1604.00
2019-05-01T09:09:02.965Z,1596.00
2019-05-01T09:11:02.276Z,1612.00
2019-05-01T09:12:01.465Z,1576.00
2019-05-01T09:13:01.696Z,1532.00
2019-05-01T09:14:01.581Z,1600.00
2019-05-01T09:16:02.355Z,1684.00
2019-05-01T09:17:01.688Z,1660.00
2019-05-01T09:18:01.767Z,1716.00
2019-05-01T09:19:01.812Z,1740.00
2019-05-01T09:20:01.872Z,1732.00
2019-05-01T09:22:02.006Z,1656.00
2019-05-01T09:23:01.982Z,1688.00
2019-05-01T09:24:01.919Z,1704.00
2019-05-01T09:25:02.052Z,1660.00
2019-05-01T09:26:06.222Z,1688.00
2019-05-01T09:27:01.922Z,1712.00
2019-05-01T09:28:04.112Z,1764.00
2019-05-01T09:29:02.033Z,1720.00
2019-05-01T09:30:04.472Z,1708.00
2019-05-01T09:31:03.333Z,1772.00
2019-05-01T09:32:05.031Z,1748.00
2019-05-01T09:33:02.552Z,1772.00
2019-05-01T09:34:02.136Z,1752.00
2019-05-01T09:35:14.625Z,1776.00
2019-05-01T09:36:02.327Z,1800.00
2019-05-01T09:37:02.287Z,1768.00
2019-05-01T09:38:02.384Z,1720.00
2019-05-01T09:39:02.350Z,1748.00
2019-05-01T09:40:04.322Z,1828.00
2019-05-01T09:41:02.363Z,1840.00
2019-05-01T09:42:02.437Z,1912.00
2019-05-01T09:43:02.436Z,1956.00
2019-05-01T09:44:05.836Z,1904.00
2019-05-01T09:45:02.489Z,2008.00
2019-05-01T09:46:02.563Z,1996.00
2019-05-01T09:47:02.544Z,1972.00
2019-05-01T09:48:02.579Z,1988.00
2019-05-01T09:49:02.657Z,2028.00
2019-05-01T09:50:02.651Z,2080.00
2019-05-01T09:51:05.541Z,2096.00
2019-05-01T09:52:02.757Z,2064.00
2019-05-01T09:53:03.099Z,1992.00
2019-05-01T09:54:05.754Z,2016.00
2019-05-01T09:55:02.792Z,2028.00
2019-05-01T09:56:03.266Z,1992.00
2019-05-01T09:57:02.913Z,1996.00
2019-05-01T09:58:03.039Z,1984.00
2019-05-01T09:59:02.969Z,1960.00
2019-05-01T10:00:03.015Z,1964.00
2019-05-01T10:01:03.043Z,1984.00
2019-05-01T10:02:07.701Z,2016.00
2019-05-01T10:03:03.101Z,2036.00
2019-05-01T10:04:05.538Z,2052.00
2019-05-01T10:05:06.688Z,2100.00
2019-05-01T10:06:03.194Z,2132.00
2019-05-01T10:07:03.176Z,2172.00
2019-05-01T10:08:04.158Z,2144.00
2019-05-01T10:09:03.242Z,2108.00
2019-05-01T10:10:03.322Z,2104.00
2019-05-01T10:11:05.147Z,2136.00
2019-05-01T10:12:03.390Z,2140.00
2019-05-01T10:13:03.415Z,2092.00
2019-05-01T10:14:04.224Z,2076.00
2019-05-01T10:16:03.513Z,2144.00
2019-05-01T10:17:03.800Z,2176.00
2019-05-01T10:18:03.577Z,2156.00
2019-05-01T10:19:03.577Z,2232.00
2019-05-01T10:20:03.720Z,2236.00
2019-05-01T10:21:03.665Z,2216.00
2019-05-01T10:22:03.842Z,2180.00
2019-05-01T10:23:07.885Z,2156.00
2019-05-01T10:24:04.015Z,2168.00
2019-05-01T10:25:03.798Z,2216.00
2019-05-01T10:26:03.831Z,2228.00
2019-05-01T10:27:03.862Z,2244.00
2019-05-01T10:28:07.219Z,2268.00
2019-05-01T10:29:03.930Z,2304.00
2019-05-01T10:30:03.913Z,2372.00
2019-05-01T10:31:06.985Z,2388.00
2019-05-01T10:32:04.014Z,2312.00
2019-05-01T10:33:04.058Z,2252.00
2019-05-01T10:34:07.643Z,2232.00
2019-05-01T10:35:04.064Z,2244.00
2019-05-01T10:36:04.138Z,2316.00
2019-05-01T10:37:04.470Z,2436.00
2019-05-01T10:38:04.664Z,2504.00
2019-05-01T10:39:04.192Z,2584.00
2019-05-01T10:40:04.231Z,2584.00
2019-05-01T10:41:08.987Z,2520.00
2019-05-01T10:42:04.341Z,2472.00
2019-05-01T10:43:04.677Z,2448.00
2019-05-01T10:44:04.354Z,2372.00
2019-05-01T10:45:04.439Z,2348.00
2019-05-01T10:46:04.474Z,2400.00
2019-05-01T10:47:04.445Z,2464.00
2019-05-01T10:48:04.528Z,2540.00
2019-05-01T10:49:04.863Z,2636.00
2019-05-01T10:50:04.589Z,2760.00
2019-05-01T10:51:04.620Z,2884.00
2019-05-01T10:52:14.059Z,2956.00
2019-05-01T10:53:04.629Z,2992.00
2019-05-01T10:54:04.719Z,2972.00
2019-05-01T10:55:05.054Z,2892.00
2019-05-01T10:56:04.793Z,2812.00
2019-05-01T10:57:04.832Z,2844.00
2019-05-01T10:58:04.803Z,2924.00
2019-05-01T10:59:04.835Z,2988.00
2019-05-01T11:00:04.917Z,3008.00
2019-05-01T11:01:04.939Z,2960.00
2019-05-01T11:02:04.982Z,2896.00
2019-05-01T11:03:04.950Z,2844.00
2019-05-01T11:04:04.982Z,2836.00
2019-05-01T11:05:05.017Z,2852.00
2019-05-01T11:06:05.097Z,2884.00
2019-05-01T11:07:05.138Z,2848.00
2019-05-01T11:08:05.111Z,2760.00
2019-05-01T11:09:05.294Z,2688.00
2019-05-01T11:10:05.328Z,2692.00
2019-05-01T11:11:05.265Z,2764.00
2019-05-01T11:13:07.674Z,2872.00
2019-05-01T11:14:05.658Z,2908.00
2019-05-01T11:15:05.389Z,2960.00
2019-05-01T11:16:05.372Z,2976.00
2019-05-01T11:17:05.457Z,3000.00
2019-05-01T11:18:05.495Z,3048.00
2019-05-01T11:19:05.482Z,3104.00
2019-05-01T11:20:05.863Z,3132.00
2019-05-01T11:21:05.609Z,3144.00
2019-05-01T11:22:05.637Z,3168.00
2019-05-01T11:23:05.597Z,3196.00
2019-05-01T11:24:05.710Z,3204.00
2019-05-01T11:25:05.655Z,3236.00
2019-05-01T11:26:05.694Z,3284.00
2019-05-01T11:27:05.785Z,3264.00
2019-05-01T11:28:05.810Z,3208.00
2019-05-01T11:29:05.794Z,3256.00
2019-05-01T11:30:05.941Z,3296.00
2019-05-01T11:31:05.859Z,3168.00
2019-05-01T11:32:05.891Z,3016.00
2019-05-01T11:34:05.944Z,2868.00
2019-05-01T11:35:06.034Z,2928.00
2019-05-01T11:36:09.787Z,3032.00
2019-05-01T11:37:06.118Z,3156.00
2019-05-01T11:38:06.384Z,3264.00
2019-05-01T11:39:06.115Z,3332.00
2019-05-01T11:40:06.212Z,3356.00
2019-05-01T11:41:06.225Z,3344.00
2019-05-01T11:42:06.267Z,3288.00
2019-05-01T11:43:06.308Z,3240.00
2019-05-01T11:44:06.439Z,3252.00
2019-05-01T11:45:06.655Z,3308.00
2019-05-01T11:46:06.336Z,3324.00
2019-05-01T11:47:06.424Z,3316.00
2019-05-01T11:48:06.420Z,3312.00
2019-05-01T11:49:06.484Z,3316.00
2019-05-01T11:50:06.519Z,3296.00
2019-05-01T11:51:06.504Z,3224.00
2019-05-01T11:52:06.582Z,3192.00
2019-05-01T11:53:06.619Z,3200.00
2019-05-01T11:54:06.620Z,3220.00
2019-05-01T11:55:06.693Z,3272.00
2019-05-01T11:56:06.682Z,3336.00
2019-05-01T11:58:07.113Z,3356.00
2019-05-01T11:59:06.763Z,3428.00
2019-05-01T12:00:06.945Z,3524.00
2019-05-01T12:01:06.880Z,3584.00
2019-05-01T12:02:06.866Z,3536.00
2019-05-01T12:03:06.940Z,3424.00
2019-05-01T12:04:06.977Z,3396.00
2019-05-01T12:05:07.352Z,3440.00
2019-05-01T12:06:07.002Z,3452.00
2019-05-01T12:07:07.025Z,3372.00
2019-05-01T12:08:07.103Z,3248.00
2019-05-01T12:10:07.123Z,3212.00
2019-05-01T12:11:07.211Z,3296.00
2019-05-01T12:12:07.259Z,3256.00
2019-05-01T12:13:07.272Z,3196.00
2019-05-01T12:14:07.296Z,3124.00
2019-05-01T12:15:07.330Z,3132.00
2019-05-01T12:16:07.310Z,3252.00
2019-05-01T12:17:07.696Z,3456.00
2019-05-01T12:18:07.386Z,3716.00
2019-05-01T12:19:07.458Z,3876.00
2019-05-01T12:20:07.452Z,3648.00
2019-05-01T12:21:07.544Z,3388.00
2019-05-01T12:22:07.566Z,3348.00
2019-05-01T12:23:07.604Z,3328.00
2019-05-01T12:24:07.629Z,3296.00
2019-05-01T12:25:07.675Z,3160.00
2019-05-01T12:26:07.687Z,3032.00
2019-05-01T12:27:07.732Z,2940.00
2019-05-01T12:28:07.715Z,2912.00
2019-05-01T12:29:08.097Z,2972.00
2019-05-01T12:30:07.824Z,2972.00
2019-05-01T12:31:07.871Z,2944.00
2019-05-01T12:32:07.848Z,3044.00
2019-05-01T12:33:07.924Z,3304.00
2019-05-01T12:34:07.916Z,3316.00
2019-05-01T12:35:07.989Z,3260.00
2019-05-01T12:36:08.027Z,3284.00
2019-05-01T12:37:08.057Z,3088.00
2019-05-01T12:38:08.038Z,2944.00
2019-05-01T12:39:08.068Z,2840.00
2019-05-01T12:40:08.149Z,2728.00
2019-05-01T12:41:08.227Z,2688.00
2019-05-01T12:42:08.171Z,2764.00
2019-05-01T12:43:08.200Z,2852.00
2019-05-01T12:44:08.251Z,2884.00
2019-05-01T12:45:08.270Z,2864.00
2019-05-01T12:47:08.384Z,2992.00
2019-05-01T12:48:08.678Z,3052.00
2019-05-01T12:49:08.462Z,3136.00
2019-05-01T12:50:08.451Z,3112.00
2019-05-01T12:51:08.514Z,3104.00
2019-05-01T12:52:10.749Z,3228.00
2019-05-01T12:53:08.532Z,3512.00
2019-05-01T12:54:08.614Z,3680.00
2019-05-01T12:55:08.652Z,3520.00
2019-05-01T12:56:08.696Z,3372.00
2019-05-01T12:57:08.719Z,3348.00
2019-05-01T12:58:08.754Z,3368.00
2019-05-01T12:59:08.784Z,3288.00
2019-05-01T13:00:09.366Z,3160.00
2019-05-01T13:01:08.803Z,3236.00
2019-05-01T13:02:08.892Z,3364.00
2019-05-01T13:03:08.911Z,3708.00
2019-05-01T13:04:08.959Z,3984.00
2019-05-01T13:05:08.995Z,3920.00
2019-05-01T13:06:09.322Z,3676.00
2019-05-01T13:07:09.065Z,3528.00
2019-05-01T13:08:09.212Z,3496.00
2019-05-01T13:09:09.148Z,3496.00
2019-05-01T13:10:09.149Z,3376.00
2019-05-01T13:11:09.280Z,3356.00
2019-05-01T13:12:09.172Z,3392.00
2019-05-01T13:13:11.093Z,3376.00